createdAt,value
2023-02-04T00:01:18.284Z,99734.13
2023-02-04T00:03:44.833Z,99732.77
2023-02-04T00:06:11.867Z,99732.79
2023-02-04T00:08:38.440Z,99733.02
2023-02-04T00:11:05.256Z,99730.17
2023-02-04T00:13:31.915Z,99730.11
2023-02-04T00:15:58.683Z,99727.80
2023-02-04T00:18:25.264Z,99725.29
2023-02-04T00:20:52.431Z,99722.41
2023-02-04T00:23:20.150Z,99717.66
2023-02-04T00:25:47.185Z,99720.09
2023-02-04T00:28:13.754Z,99723.58
2023-02-04T00:30:40.618Z,99722.91
2023-02-04T00:33:08.729Z,99721.13
2023-02-04T00:35:38.822Z,99720.75
2023-02-04T00:38:06.128Z,99719.02
2023-02-04T00:40:33.099Z,99718.48
2023-02-04T00:42:59.827Z,99718.98
2023-02-04T00:45:26.235Z,99719.28
2023-02-04T00:47:53.019Z,99719.52
2023-02-04T00:50:19.522Z,99715.92
2023-02-04T00:52:46.805Z,99712.16
2023-02-04T00:55:14.984Z,99712.90
2023-02-04T00:57:41.796Z,99710.38
2023-02-04T01:00:09.454Z,99713.94
2023-02-04T01:02:36.505Z,99712.01
2023-02-04T01:05:03.248Z,99715.61
2023-02-04T01:07:32.405Z,99712.64
2023-02-04T01:09:59.678Z,99716.07
2023-02-04T01:12:28.016Z,99712.73
2023-02-04T01:14:54.918Z,99711.95
2023-02-04T01:17:21.446Z,99715.75
2023-02-04T01:19:47.953Z,99714.59
2023-02-04T01:22:14.469Z,99715.14
2023-02-04T01:24:41.247Z,99709.86
2023-02-04T01:27:26.260Z,99713.04
2023-02-04T01:29:52.765Z,99706.77
2023-02-04T01:32:19.289Z,99707.14
2023-02-04T01:34:45.793Z,99707.64
2023-02-04T01:37:12.317Z,99705.73
2023-02-04T01:39:38.751Z,99706.04
2023-02-04T01:42:05.318Z,99708.35
2023-02-04T01:44:32.136Z,99707.00
2023-02-04T01:46:58.674Z,99705.45
2023-02-04T01:49:25.372Z,99700.80
2023-02-04T01:51:51.912Z,99699.85
2023-02-04T01:54:20.234Z,99699.45
2023-02-04T01:56:48.564Z,99702.05
2023-02-04T01:59:15.703Z,99699.11
2023-02-04T02:01:46.911Z,99696.52
2023-02-04T02:04:15.220Z,99697.03
2023-02-04T02:06:48.405Z,99696.16
2023-02-04T02:09:15.225Z,99692.11
2023-02-04T02:11:43.868Z,99695.77
2023-02-04T02:14:10.927Z,99697.17
2023-02-04T02:16:37.448Z,99696.69
2023-02-04T02:19:04.693Z,99698.33
2023-02-04T02:21:43.927Z,99700.02
2023-02-04T02:24:30.225Z,99703.12
2023-02-04T02:26:57.682Z,99702.67
2023-02-04T02:29:25.107Z,99706.49
2023-02-04T02:31:52.193Z,99704.27
2023-02-04T02:34:19.191Z,99704.08
2023-02-04T02:36:45.872Z,99702.97
2023-02-04T02:39:13.197Z,99701.98
2023-02-04T02:41:40.594Z,99702.89
2023-02-04T02:44:08.076Z,99702.25
2023-02-04T02:46:38.845Z,99705.65
2023-02-04T02:49:05.856Z,99702.02
2023-02-04T02:51:32.896Z,99705.48
2023-02-04T02:53:59.462Z,99707.92
2023-02-04T02:56:27.131Z,99710.23
2023-02-04T02:58:53.845Z,99708.21
2023-02-04T03:01:23.414Z,99707.58
2023-02-04T03:03:51.326Z,99709.32
2023-02-04T03:06:22.955Z,99712.73
2023-02-04T03:08:51.086Z,99716.27
2023-02-04T03:11:21.359Z,99719.65
2023-02-04T03:13:48.475Z,99716.60
2023-02-04T03:16:14.989Z,99715.67
2023-02-04T03:18:41.821Z,99716.34
2023-02-04T03:21:11.321Z,99718.80
2023-02-04T03:23:38.185Z,99718.15
2023-02-04T03:26:05.319Z,99715.40
2023-02-04T03:28:32.876Z,99718.88
2023-02-04T03:30:59.603Z,99722.85
2023-02-04T03:33:30.665Z,99720.20
2023-02-04T03:35:58.080Z,99716.15
2023-02-04T03:38:24.672Z,99716.21
2023-02-04T03:40:51.172Z,99719.75
2023-02-04T03:43:18.281Z,99724.73
2023-02-04T03:45:45.938Z,99723.34
2023-02-04T03:48:12.908Z,99726.48
2023-02-04T03:50:39.537Z,99728.08
2023-02-04T03:53:06.480Z,99730.37
2023-02-04T03:55:33.009Z,99728.49
2023-02-04T03:58:00.154Z,99727.47
2023-02-04T04:00:26.792Z,99727.23
2023-02-04T04:02:54.763Z,99724.71
2023-02-04T04:05:21.508Z,99726.66
2023-02-04T04:07:48.805Z,99726.90
2023-02-04T04:10:15.661Z,99728.91
2023-02-04T04:12:42.324Z,99734.42
2023-02-04T04:15:09.234Z,99736.19
2023-02-04T04:17:35.788Z,99738.00
2023-02-04T04:20:02.518Z,99733.64
2023-02-04T04:22:29.722Z,99739.31
2023-02-04T04:24:56.225Z,99741.30
2023-02-04T04:27:22.985Z,99744.85
2023-02-04T04:29:51.755Z,99743.02
2023-02-04T04:32:18.515Z,99744.92
2023-02-04T04:34:45.176Z,99744.86
2023-02-04T04:37:11.785Z,99749.27
2023-02-04T04:39:38.283Z,99751.80
2023-02-04T04:42:04.837Z,99754.69
2023-02-04T04:44:32.131Z,99755.39
2023-02-04T04:46:59.162Z,99758.56
2023-02-04T04:49:26.081Z,99756.95
2023-02-04T04:51:52.862Z,99761.23
2023-02-04T04:54:19.283Z,99762.83
2023-02-04T04:56:46.567Z,99765.52
2023-02-04T04:59:13.166Z,99767.98
2023-02-04T05:01:39.619Z,99772.80
2023-02-04T05:04:06.062Z,99773.09
2023-02-04T05:06:32.702Z,99774.52
2023-02-04T05:08:59.493Z,99786.01
2023-02-04T05:11:26.082Z,99786.11
2023-02-04T05:13:52.649Z,99786.30
2023-02-04T05:16:19.170Z,99788.41
2023-02-04T05:18:46.072Z,99791.30
2023-02-04T05:21:12.701Z,99797.30
2023-02-04T05:23:39.155Z,99802.23
2023-02-04T05:26:05.898Z,99802.84
2023-02-04T05:28:32.847Z,99807.07
2023-02-04T05:30:59.434Z,99809.87
2023-02-04T05:33:26.495Z,99807.94
2023-02-04T05:35:53.888Z,99812.88
2023-02-04T05:38:20.684Z,99817.98
2023-02-04T05:40:47.147Z,99815.80
2023-02-04T05:43:13.894Z,99815.86
2023-02-04T05:45:42.006Z,99819.08
2023-02-04T05:48:08.702Z,99821.30
2023-02-04T05:50:35.143Z,99823.89
2023-02-04T05:53:10.923Z,99827.36
2023-02-04T05:55:41.197Z,99832.73
2023-02-04T05:58:07.905Z,99840.51
2023-02-04T06:00:34.606Z,99843.24
2023-02-04T06:03:01.243Z,99849.92
2023-02-04T06:05:27.945Z,99852.61
2023-02-04T06:07:55.271Z,99851.87
2023-02-04T06:10:21.948Z,99854.42
2023-02-04T06:12:48.762Z,99858.02
2023-02-04T06:15:15.557Z,99861.31
2023-02-04T06:17:42.189Z,99862.55
2023-02-04T06:20:10.513Z,99862.35
2023-02-04T06:22:37.187Z,99864.05
2023-02-04T06:25:04.752Z,99867.75
2023-02-04T06:27:31.348Z,99869.66
2023-02-04T06:29:57.883Z,99869.27
2023-02-04T06:32:24.429Z,99870.95
2023-02-04T06:34:50.944Z,99872.92
2023-02-04T06:37:17.970Z,99872.38
2023-02-04T06:39:44.519Z,99878.94
2023-02-04T06:42:11.278Z,99874.48
2023-02-04T06:44:37.783Z,99879.39
2023-02-04T06:47:04.341Z,99883.25
2023-02-04T06:49:31.092Z,99889.81
2023-02-04T06:51:58.013Z,99890.35
2023-02-04T06:54:24.619Z,99892.92
2023-02-04T06:56:51.114Z,99896.29
2023-02-04T06:59:17.639Z,99896.21
2023-02-04T07:01:44.792Z,99898.88
2023-02-04T07:04:11.426Z,99899.95
2023-02-04T07:06:38.041Z,99905.54
2023-02-04T07:09:04.869Z,99905.68
2023-02-04T07:11:32.726Z,99909.16
2023-02-04T07:14:00.119Z,99909.55
2023-02-04T07:16:26.657Z,99910.14
2023-02-04T07:18:53.329Z,99904.65
2023-02-04T07:21:19.856Z,99907.11
2023-02-04T07:23:46.343Z,99912.52
2023-02-04T07:26:12.916Z,99915.25
2023-02-04T07:28:40.638Z,99918.84
2023-02-04T07:31:07.151Z,99917.23
2023-02-04T07:33:34.537Z,99915.10
2023-02-04T07:36:01.361Z,99915.26
2023-02-04T07:38:28.266Z,99911.48
2023-02-04T07:40:54.822Z,99910.18
2023-02-04T07:43:21.640Z,99913.88
2023-02-04T07:45:49.351Z,99914.52
2023-02-04T07:48:16.261Z,99915.29
2023-02-04T07:50:42.760Z,99918.80
2023-02-04T07:53:10.420Z,99921.43
2023-02-04T07:55:37.045Z,99920.71
2023-02-04T07:58:03.877Z,99922.42
2023-02-04T08:00:30.764Z,99924.28
2023-02-04T08:02:57.768Z,99932.96
2023-02-04T08:05:24.380Z,99932.15
2023-02-04T08:07:51.098Z,99933.62
2023-02-04T08:10:18.257Z,99933.59
2023-02-04T08:12:46.480Z,99934.98
2023-02-04T08:15:13.574Z,99936.52
2023-02-04T08:17:40.264Z,99936.56
2023-02-04T08:20:09.064Z,99938.73
2023-02-04T08:22:37.075Z,99944.42
2023-02-04T08:25:04.839Z,99946.73
2023-02-04T08:27:31.534Z,99949.83
2023-02-04T08:29:58.162Z,99951.33
2023-02-04T08:32:26.410Z,99953.39
2023-02-04T08:34:53.149Z,99950.95
2023-02-04T08:37:19.812Z,99952.34
2023-02-04T08:39:46.740Z,99953.98
2023-02-04T08:42:13.653Z,99955.16
2023-02-04T08:44:40.584Z,99959.17
2023-02-04T08:47:07.216Z,99964.57
2023-02-04T08:49:33.838Z,99970.91
2023-02-04T08:52:02.494Z,99971.14
2023-02-04T08:54:29.499Z,99971.35
2023-02-04T08:56:55.993Z,99972.76
2023-02-04T08:59:23.527Z,99972.39
2023-02-04T09:01:51.755Z,99974.31
2023-02-04T09:04:18.955Z,99969.12
2023-02-04T09:06:45.683Z,99969.80
2023-02-04T09:09:12.767Z,99971.15
2023-02-04T09:11:39.553Z,99974.45
2023-02-04T09:14:06.512Z,99974.56
2023-02-04T09:16:33.111Z,99974.27
2023-02-04T09:19:01.151Z,99973.06
2023-02-04T09:21:27.861Z,99974.45
2023-02-04T09:23:54.496Z,99975.06
2023-02-04T09:26:20.978Z,99974.08
2023-02-04T09:28:48.073Z,99975.96
2023-02-04T09:31:15.132Z,99974.86
2023-02-04T09:33:41.785Z,99971.46
2023-02-04T09:36:09.995Z,99969.91
2023-02-04T09:38:37.045Z,99971.70
2023-02-04T09:41:05.870Z,99969.48
2023-02-04T09:43:38.418Z,99970.14
2023-02-04T09:46:05.105Z,99971.50
2023-02-04T09:48:32.544Z,99977.98
2023-02-04T09:51:06.959Z,99977.89
2023-02-04T09:53:33.828Z,99982.46
2023-02-04T09:56:00.481Z,99982.67
2023-02-04T09:58:31.031Z,99981.70
2023-02-04T10:00:59.392Z,99982.89
2023-02-04T10:03:25.927Z,99986.67
2023-02-04T10:05:52.531Z,99986.66
2023-02-04T10:08:27.928Z,99988.14
2023-02-04T10:10:55.302Z,99987.67
2023-02-04T10:13:30.982Z,99987.52
2023-02-04T10:15:58.123Z,99992.89
2023-02-04T10:18:29.560Z,99990.22
2023-02-04T10:20:57.476Z,99996.52
2023-02-04T10:23:23.917Z,99999.79
2023-02-04T10:25:50.580Z,100006.64
2023-02-04T10:28:17.972Z,100008.45
2023-02-04T10:30:46.521Z,100014.80
2023-02-04T10:33:24.158Z,100022.08
2023-02-04T10:35:57.390Z,100027.09
2023-02-04T10:38:24.098Z,100030.88
2023-02-04T10:41:02.173Z,100033.08
2023-02-04T10:43:28.949Z,100035.59
2023-02-04T10:46:01.103Z,100032.89
2023-02-04T10:48:29.455Z,100036.06
2023-02-04T10:50:56.176Z,100038.84
2023-02-04T10:53:49.466Z,100040.92
2023-02-04T10:56:20.280Z,100045.54
2023-02-04T10:58:47.389Z,100051.75
2023-02-04T11:01:15.423Z,100055.94
2023-02-04T11:03:42.326Z,100062.43
2023-02-04T11:06:15.558Z,100066.64
2023-02-04T11:08:45.359Z,100066.26
2023-02-04T11:11:20.650Z,100071.94
2023-02-04T11:13:50.281Z,100074.37
2023-02-04T11:16:16.929Z,100077.72
2023-02-04T11:18:45.186Z,100079.20
2023-02-04T11:21:33.547Z,100081.02
2023-02-04T11:24:15.604Z,100080.88
2023-02-04T11:26:51.594Z,100085.34
2023-02-04T11:29:33.878Z,100088.45
2023-02-04T11:32:02.728Z,100093.98
2023-02-04T11:34:30.392Z,100091.77
2023-02-04T11:37:05.251Z,100093.75
2023-02-04T11:39:33.871Z,100088.29
2023-02-04T11:42:00.520Z,100092.04
2023-02-04T11:44:27.135Z,100091.88
2023-02-04T11:46:57.716Z,100089.77
2023-02-04T11:49:25.606Z,100098.69
2023-02-04T11:52:03.397Z,100104.39
2023-02-04T11:54:30.770Z,100105.25
2023-02-04T11:56:58.869Z,100107.97
2023-02-04T11:59:25.526Z,100108.78
2023-02-04T12:02:03.359Z,100112.52
2023-02-04T12:04:29.936Z,100114.17
2023-02-04T12:07:02.622Z,100115.39
2023-02-04T12:09:32.616Z,100120.20
2023-02-04T12:12:00.892Z,100115.30
2023-02-04T12:14:37.692Z,100115.08
2023-02-04T12:17:17.678Z,100120.71
2023-02-04T12:19:46.656Z,100123.42
2023-02-04T12:22:14.976Z,100123.90
2023-02-04T12:24:42.208Z,100126.67
2023-02-04T12:27:08.713Z,100130.19
2023-02-04T12:29:35.491Z,100128.45
2023-02-04T12:32:01.996Z,100129.14
2023-02-04T12:34:29.062Z,100132.41
2023-02-04T12:36:55.593Z,100130.70
2023-02-04T12:39:22.306Z,100131.84
2023-02-04T12:41:48.914Z,100131.02
2023-02-04T12:44:16.765Z,100132.83
2023-02-04T12:46:43.376Z,100135.90
2023-02-04T12:49:10.210Z,100135.06
2023-02-04T12:51:36.831Z,100139.84
2023-02-04T12:54:03.674Z,100139.52
2023-02-04T12:56:30.567Z,100143.80
2023-02-04T12:58:57.253Z,100144.84
2023-02-04T13:01:23.869Z,100146.78
2023-02-04T13:03:50.335Z,100150.14
2023-02-04T13:06:16.920Z,100149.20
2023-02-04T13:08:43.398Z,100150.86
2023-02-04T13:11:10.029Z,100155.06
2023-02-04T13:13:38.713Z,100157.55
2023-02-04T13:16:05.409Z,100162.56
2023-02-04T13:18:33.335Z,100163.71
2023-02-04T13:20:59.951Z,100165.23
2023-02-04T13:23:26.560Z,100165.70
2023-02-04T13:25:53.289Z,100167.71
2023-02-04T13:28:20.368Z,100171.39
2023-02-04T13:30:46.999Z,100175.10
2023-02-04T13:33:14.032Z,100176.04
2023-02-04T13:35:40.718Z,100181.42
2023-02-04T13:38:07.433Z,100180.91
2023-02-04T16:02:30.339Z,100372.28
2023-02-04T16:04:58.756Z,100374.92
2023-02-04T16:07:26.580Z,100378.05
2023-02-04T16:09:54.779Z,100382.36
2023-02-04T16:12:22.890Z,100385.50
2023-02-04T16:14:51.096Z,100389.66
2023-02-04T16:17:19.349Z,100388.85
2023-02-04T16:19:47.336Z,100398.73
2023-02-04T16:22:15.528Z,100403.58
2023-02-04T16:24:43.626Z,100406.02
2023-02-04T16:27:11.547Z,100405.69
2023-02-04T16:29:39.499Z,100408.80
2023-02-04T16:32:07.392Z,100415.86
2023-02-04T16:34:36.162Z,100412.38
2023-02-04T16:37:04.062Z,100410.45
2023-02-04T16:39:32.281Z,100408.86
2023-02-04T16:42:00.186Z,100411.61
2023-02-04T16:44:28.153Z,100412.13
2023-02-04T16:46:56.355Z,100418.89
2023-02-04T16:49:26.468Z,100420.30
2023-02-04T16:51:54.359Z,100425.51
2023-02-04T16:54:22.598Z,100423.66
2023-02-04T16:56:50.428Z,100425.81
2023-02-04T16:59:18.295Z,100426.73
2023-02-04T17:01:47.304Z,100433.04
2023-02-04T17:04:15.284Z,100435.36
2023-02-04T17:06:43.262Z,100435.23
2023-02-04T17:09:11.226Z,100439.22
2023-02-04T17:11:39.141Z,100438.37
2023-02-04T17:14:15.617Z,100435.77
2023-02-04T17:16:47.407Z,100437.48
2023-02-04T17:19:17.525Z,100436.42
2023-02-04T17:21:45.568Z,100443.14
2023-02-04T17:24:13.798Z,100440.05
2023-02-04T17:26:41.920Z,100441.10
2023-02-04T17:29:12.313Z,100446.46
2023-02-04T17:31:42.798Z,100446.16
2023-02-04T17:34:10.847Z,100450.70
2023-02-04T17:36:39.021Z,100454.73
2023-02-04T17:39:07.676Z,100455.32
2023-02-04T17:41:35.622Z,100459.36
2023-02-04T17:44:03.610Z,100458.23
2023-02-04T17:46:31.875Z,100457.56
2023-02-04T17:48:59.820Z,100460.53
2023-02-04T17:51:27.694Z,100462.11
2023-02-04T17:53:55.750Z,100465.22
2023-02-04T17:56:24.545Z,100470.55
2023-02-04T17:58:52.465Z,100471.23
2023-02-04T18:01:22.033Z,100476.73
2023-02-04T18:03:50.376Z,100483.95
2023-02-04T18:06:27.199Z,100486.90
2023-02-04T18:09:01.857Z,100489.85
2023-02-04T18:11:35.830Z,100490.57
2023-02-04T18:14:16.937Z,100494.75
2023-02-04T18:16:45.437Z,100499.28
2023-02-04T18:19:30.180Z,100502.27
2023-02-04T18:21:58.509Z,100506.11
2023-02-04T18:24:30.304Z,100507.67
2023-02-04T18:27:04.621Z,100510.83
2023-02-04T18:29:36.647Z,100510.17
2023-02-04T18:32:21.385Z,100518.65
2023-02-04T18:34:55.237Z,100516.41
2023-02-04T18:37:27.420Z,100516.06
2023-02-04T18:40:10.415Z,100520.53
2023-02-04T18:42:43.573Z,100519.82
2023-02-04T18:45:31.371Z,100523.08
2023-02-04T18:48:01.307Z,100522.73
2023-02-04T18:50:34.440Z,100527.89
2023-02-04T18:53:12.433Z,100521.20
2023-02-04T18:55:40.787Z,100522.25
2023-02-04T18:58:18.451Z,100526.58
2023-02-04T19:00:52.332Z,100529.71
2023-02-04T19:03:25.388Z,100532.52
2023-02-04T19:05:54.872Z,100534.60
2023-02-04T19:08:27.283Z,100534.43
2023-02-04T19:10:59.032Z,100539.29
2023-02-04T19:13:33.873Z,100538.27
2023-02-04T19:16:23.381Z,100541.56
2023-02-04T19:18:53.222Z,100547.60
2023-02-04T19:21:25.838Z,100545.36
2023-02-04T19:24:08.205Z,100548.95
2023-02-04T19:26:40.413Z,100554.27
2023-02-04T19:29:38.988Z,100554.41
2023-02-04T19:32:22.081Z,100553.73
2023-02-04T19:34:51.858Z,100554.76
2023-02-04T19:37:24.591Z,100553.39
2023-02-04T19:39:53.577Z,100552.34
2023-02-04T19:42:27.168Z,100557.85
2023-02-04T19:44:57.171Z,100558.73
2023-02-04T19:47:26.086Z,100559.11
2023-02-04T19:50:01.866Z,100563.11
2023-02-04T19:52:35.086Z,100568.14
2023-02-04T19:55:18.079Z,100572.46
2023-02-04T19:57:48.930Z,100570.58
2023-02-04T20:00:36.049Z,100572.66
2023-02-04T20:03:12.845Z,100575.27
2023-02-04T20:05:41.129Z,100576.66
2023-02-04T20:08:39.654Z,100581.83
2023-02-04T20:11:33.839Z,100578.56
2023-02-04T20:14:12.419Z,100580.45
2023-02-04T20:16:46.660Z,100583.02
2023-02-04T20:19:25.745Z,100581.27
2023-02-04T20:22:13.368Z,100582.48
2023-02-04T20:24:41.786Z,100584.22
2023-02-04T20:27:26.672Z,100584.56
2023-02-04T20:30:11.635Z,100584.92
2023-02-04T20:32:41.434Z,100588.90
2023-02-04T20:35:09.199Z,100589.07
2023-02-04T20:37:37.650Z,100592.34
2023-02-04T20:40:20.730Z,100593.38
2023-02-04T20:42:52.657Z,100600.79
2023-02-04T20:45:27.808Z,100602.86
2023-02-04T20:48:15.973Z,100603.35
2023-02-04T20:50:47.386Z,100603.00
2023-02-04T20:53:29.726Z,100609.19
2023-02-04T20:56:03.993Z,100611.08
2023-02-04T20:58:39.460Z,100611.42
2023-02-04T21:01:25.800Z,100608.50
2023-02-04T21:03:53.902Z,100610.56
2023-02-04T21:06:27.861Z,100617.44
2023-02-04T21:08:56.840Z,100614.86
2023-02-04T21:11:24.930Z,100616.06
2023-02-04T21:13:53.493Z,100616.91
2023-02-04T21:16:21.720Z,100619.00
2023-02-04T21:18:50.749Z,100623.95
2023-02-04T21:21:20.345Z,100625.66
2023-02-04T21:23:50.407Z,100628.23
2023-02-04T21:26:18.358Z,100627.55
2023-02-04T21:28:46.217Z,100633.04
2023-02-04T21:31:14.605Z,100636.30
2023-02-04T21:33:42.586Z,100640.77
2023-02-04T21:36:10.482Z,100639.41
2023-02-04T21:38:38.488Z,100639.41
2023-02-04T21:41:06.963Z,100642.48
2023-02-04T21:43:35.064Z,100642.83
2023-02-04T21:46:03.024Z,100641.09
2023-02-04T21:48:31.587Z,100640.73
2023-02-04T21:51:00.160Z,100640.89
2023-02-04T21:53:28.124Z,100643.23
2023-02-04T21:55:58.448Z,100640.63
2023-02-04T21:58:27.302Z,100641.47
2023-02-04T22:00:55.158Z,100644.89
2023-02-04T22:03:23.011Z,100644.86
2023-02-04T22:05:50.888Z,100646.05
2023-02-04T22:08:18.712Z,100646.92
2023-02-04T22:10:46.933Z,100651.41
2023-02-04T22:13:29.808Z,100647.15
2023-02-04T22:15:57.642Z,100645.46
2023-02-04T22:18:25.475Z,100651.15
2023-02-04T22:20:53.764Z,100651.20
2023-02-04T22:23:21.910Z,100656.36
2023-02-04T22:25:49.797Z,100657.40
2023-02-04T22:28:17.724Z,100659.83
2023-02-04T22:30:46.103Z,100657.59
2023-02-04T22:33:14.185Z,100656.58
2023-02-04T22:35:42.163Z,100654.87
2023-02-04T22:38:09.963Z,100655.73
2023-02-04T22:40:37.798Z,100649.07
2023-02-04T22:43:05.952Z,100652.50
2023-02-04T22:45:34.022Z,100658.01
2023-02-04T22:48:02.187Z,100657.34
2023-02-04T22:50:30.349Z,100656.67
2023-02-04T22:52:58.303Z,100651.52
2023-02-04T22:55:26.950Z,100650.98
2023-02-04T22:57:55.149Z,100653.94
2023-02-04T23:00:23.067Z,100649.11
2023-02-04T23:02:51.320Z,100650.65
2023-02-04T23:05:19.192Z,100647.02
2023-02-04T23:07:47.674Z,100647.02
2023-02-04T23:10:16.000Z,100643.39
2023-02-04T23:13:03.959Z,100647.16
2023-02-04T23:15:32.802Z,100645.63
2023-02-04T23:18:00.946Z,100644.59
2023-02-04T23:20:28.960Z,100643.17
2023-02-04T23:22:56.894Z,100643.14
2023-02-04T23:25:24.801Z,100646.22
2023-02-04T23:27:52.897Z,100641.73
2023-02-04T23:30:22.147Z,100644.84
2023-02-04T23:32:50.852Z,100645.17
2023-02-04T23:35:18.731Z,100639.83
2023-02-04T23:37:46.682Z,100647.25
2023-02-04T23:40:14.663Z,100648.95
2023-02-04T23:42:43.608Z,100653.43
2023-02-04T23:45:11.603Z,100651.88
2023-02-04T23:47:39.621Z,100653.91
2023-02-04T23:50:08.026Z,100655.45
2023-02-04T23:52:36.588Z,100658.69
2023-02-04T23:55:05.302Z,100658.66
2023-02-04T23:57:33.230Z,100658.98
